This is the latest recevied weather packets stored in our database for station/object DF9PM-13. If no packets are shown the sender has not sent any weather packets the latest 10 day(s).
| Time | Temp. | Humidity | Pressure | Rain* | Wind** | Luminosity | Snow |
|---|---|---|---|---|---|---|---|
| 1777885235 | 22.78° C | 40% | 1014.4 hPa | - | - | - | - |
| 1777884935 | 22.78° C | 40% | 1014.4 hPa | - | - | - | - |
| 1777884635 | 21.11° C | 43% | 1014.4 hPa | - | - | - | - |
| 1777884335 | 21.67° C | 42% | 1014.3 hPa | - | - | - | - |
| 1777884035 | 21.11° C | 42% | 1014.5 hPa | - | - | - | - |
| 1777883735 | 21.11° C | 43% | 1014.4 hPa | - | - | - | - |
| 1777883434 | 18.89° C | 47% | 1014.4 hPa | - | - | - | - |
| 1777883135 | 19.44° C | 48% | 1014.4 hPa | - | - | - | - |
| 1777882834 | 19.44° C | 48% | 1014.4 hPa | - | - | - | - |
| 1777882534 | 20.56° C | 49% | 1014.4 hPa | - | - | - | - |
| 1777882234 | 20° C | 50% | 1014.4 hPa | - | - | - | - |
| 1777881934 | 19.44° C | 51% | 1014.5 hPa | - | - | - | - |
| 1777881634 | 19.44° C | 48% | 1014.4 hPa | - | - | - | - |
| 1777881334 | 18.89° C | 52% | 1014.4 hPa | - | - | - | - |
| 1777881034 | 18.89° C | 51% | 1014.5 hPa | - | - | - | - |
| 1777880734 | 18.89° C | 50% | 1014.4 hPa | - | - | - | - |
| 1777880434 | 18.89° C | 53% | 1014.3 hPa | - | - | - | - |
| 1777880134 | 17.22° C | 54% | 1014.3 hPa | - | - | - | - |
| 1777879834 | 18.33° C | 52% | 1014.2 hPa | - | - | - | - |
| 1777879534 | 18.89° C | 53% | 1014.2 hPa | - | - | - | - |
| 1777879234 | 17.78° C | 55% | 1014.1 hPa | - | - | - | - |
| 1777878934 | 17.22° C | 58% | 1014.2 hPa | - | - | - | - |
| 1777878633 | 17.78° C | 57% | 1014.2 hPa | - | - | - | - |
| 1777878333 | 17.78° C | 61% | 1014.2 hPa | - | - | - | - |
| 1777878033 | 17.22° C | 60% | 1014.2 hPa | - | - | - | - |
* Rain since midnight (hover to see other rain measurements)
** Current wind speed in m/s (hover to see current wind gust speed)